Time;durP1;ratioP1;P1;durP2;ratioP2;P2;SDS_P1;SDS_P2;PMS_P1;PMS_P2;Temp;Humidity;BMP_temperature;BMP_pressure;BME280_temperature;BME280_humidity;BME280_pressure;Samples;Min_cycle;Max_cycle;Signal;HPM_P1;HPM_P2
2023/04/15 00:06:54;;;;;;;1999.90;999.90;;;6.40;99.90;;;;;;6742331;88;20236;-77
2023/04/15 00:16:56;;;;;;;1999.90;999.90;;;6.40;99.90;;;;;;6732153;88;20204;-78
2023/04/15 00:26:56;;;;;;;1999.90;999.90;;;6.20;99.90;;;;;;6734958;88;20208;-79
2023/04/15 00:36:57;;;;;;;1999.90;999.90;;;6.00;99.90;;;;;;6734136;88;20719;-78
2023/04/15 00:47:03;;;;;;;1999.90;999.90;;;6.00;99.90;;;;;;6731531;88;20850;-78
2023/04/15 00:57:05;;;;;;;1999.90;999.90;;;5.90;99.90;;;;;;6741539;88;20720;-79
2023/04/15 01:07:06;;;;;;;1999.90;999.90;;;5.70;99.90;;;;;;6733732;88;20244;-78
2023/04/15 01:17:07;;;;;;;1999.90;999.90;;;5.50;99.90;;;;;;6745977;88;20285;-77
2023/04/15 01:27:08;;;;;;;1999.90;999.90;;;5.40;99.90;;;;;;6733732;88;20375;-78
2023/04/15 01:37:08;;;;;;;1999.90;999.90;;;5.40;99.90;;;;;;6730970;88;20200;-78
2023/04/15 01:47:09;;;;;;;1999.90;999.90;;;5.30;99.90;;;;;;6733182;88;20712;-77
2023/04/15 01:57:09;;;;;;;1999.90;999.90;;;5.40;99.90;;;;;;6736763;88;20227;-78
2023/04/15 02:07:10;;;;;;;1999.90;999.90;;;5.00;99.90;;;;;;6744387;88;20177;-79
2023/04/15 02:17:10;;;;;;;1999.90;999.90;;;4.80;99.90;;;;;;6740833;88;20196;-79
2023/04/15 02:27:16;;;;;;;1999.90;999.90;;;4.70;99.90;;;;;;6744590;88;20197;-78
2023/04/15 02:37:18;;;;;;;1999.90;999.90;;;4.60;99.90;;;;;;6653068;77;21030;-75
2023/04/15 02:47:18;;;;;;;1999.90;999.90;;;4.60;99.90;;;;;;6645004;88;20846;-75
2023/04/15 02:57:19;;;;;;;1999.90;999.90;;;4.40;99.90;;;;;;6625758;88;20201;-76
2023/04/15 03:07:19;;;;;;;1999.90;999.90;;;4.20;99.90;;;;;;6641235;88;20242;-75
2023/04/15 03:17:20;;;;;;;1999.90;999.90;;;4.20;99.90;;;;;;6663717;88;20257;-77
2023/04/15 03:27:21;;;;;;;1999.90;999.90;;;3.90;99.90;;;;;;6632062;88;20300;-76
2023/04/15 03:37:21;;;;;;;1999.90;999.90;;;3.80;99.90;;;;;;6652596;88;20181;-76
2023/04/15 03:47:22;;;;;;;1999.90;999.90;;;3.90;99.90;;;;;;6688058;88;20527;-75
2023/04/15 03:57:22;;;;;;;1999.90;999.90;;;3.80;99.90;;;;;;6664022;88;20260;-76
2023/04/15 04:07:23;;;;;;;1999.90;999.90;;;3.60;99.90;;;;;;6656221;88;20269;-75
2023/04/15 04:17:24;;;;;;;1999.90;999.90;;;3.70;99.90;;;;;;6665859;88;20218;-76
2023/04/15 04:27:25;;;;;;;1999.90;999.90;;;3.80;99.90;;;;;;6687613;88;20218;-76
2023/04/15 04:37:26;;;;;;;1999.90;999.90;;;3.70;99.90;;;;;;6679290;88;20193;-76
2023/04/15 04:47:26;;;;;;;1999.90;999.90;;;3.60;99.90;;;;;;6669334;88;20715;-75
2023/04/15 04:57:27;;;;;;;1999.90;999.90;;;3.70;99.90;;;;;;6692195;88;20378;-78
2023/04/15 05:07:27;;;;;;;1999.90;999.90;;;3.80;99.90;;;;;;6670282;88;20189;-76
2023/04/15 05:17:30;;;;;;;1999.90;999.90;;;3.80;99.90;;;;;;6686082;88;20268;-76
2023/04/15 05:27:30;;;;;;;1999.90;999.90;;;3.70;99.90;;;;;;6689449;88;20354;-75
2023/04/15 05:37:31;;;;;;;1999.90;999.90;;;3.80;99.90;;;;;;6654101;88;20749;-75
2023/04/15 05:47:31;;;;;;;1999.90;999.90;;;3.90;99.90;;;;;;6654638;88;20364;-74
2023/04/15 05:57:32;;;;;;;1999.90;999.90;;;4.40;99.90;;;;;;6664894;88;20286;-74
2023/04/15 06:07:32;;;;;;;1999.90;999.90;;;4.90;99.90;;;;;;6642412;88;20216;-76
2023/04/15 06:17:33;;;;;;;1999.90;999.90;;;5.60;99.90;;;;;;6677034;88;20651;-76
2023/04/15 06:27:33;;;;;;;1999.90;999.90;;;5.90;99.90;;;;;;6672603;88;20220;-75
2023/04/15 06:37:34;;;;;;;1999.90;999.90;;;6.30;99.90;;;;;;6681799;88;20854;-75
2023/04/15 06:47:34;;;;;;;1999.90;999.90;;;6.70;99.90;;;;;;6664963;88;20193;-76
2023/04/15 06:57:35;;;;;;;1999.90;999.90;;;7.10;99.90;;;;;;6686606;88;20665;-76
2023/04/15 07:07:36;;;;;;;1999.90;999.90;;;7.60;99.90;;;;;;6691296;88;20515;-76
2023/04/15 07:17:37;;;;;;;1999.90;999.90;;;8.40;99.90;;;;;;6664926;88;20506;-77
2023/04/15 07:27:37;;;;;;;1999.90;999.90;;;9.60;99.90;;;;;;6671257;88;20299;-76
2023/04/15 07:37:38;;;;;;;1999.90;999.90;;;10.90;99.90;;;;;;6670711;88;20284;-76
2023/04/15 07:47:39;;;;;;;1999.90;999.90;;;10.80;99.90;;;;;;6652801;88;20648;-77
2023/04/15 07:57:40;;;;;;;1999.90;999.90;;;11.40;99.90;;;;;;6638520;88;20966;-76
2023/04/15 08:07:41;;;;;;;1999.90;999.90;;;11.50;99.90;;;;;;6666595;88;20675;-76
2023/04/15 08:17:41;;;;;;;1999.90;999.90;;;11.90;99.90;;;;;;6681345;88;20575;-76
2023/04/15 08:27:42;;;;;;;1999.90;999.90;;;12.40;99.90;;;;;;6681697;88;20223;-78
2023/04/15 08:37:43;;;;;;;1999.90;999.90;;;13.10;99.90;;;;;;6710177;77;20646;-77
2023/04/15 08:47:47;;;;;;;1999.90;999.90;;;12.90;99.90;;;;;;6700374;88;20179;-78
2023/04/15 08:57:48;;;;;;;1999.90;999.90;;;13.10;99.90;;;;;;6711253;88;20821;-77
2023/04/15 09:07:50;;;;;;;1999.90;999.90;;;13.30;99.90;;;;;;6711261;88;20227;-77
2023/04/15 09:17:50;;;;;;;1999.90;999.90;;;14.10;99.90;;;;;;6711651;88;20665;-77
2023/04/15 09:27:53;;;;;;;1999.90;999.90;;;14.50;99.90;;;;;;6708022;88;20206;-76
2023/04/15 09:38:08;;;;;;;1999.90;999.90;;;15.30;99.10;;;;;;6708849;88;20742;-76
2023/04/15 09:48:22;;;;;;;1999.90;999.90;;;15.50;97.90;;;;;;6717130;88;20267;-77
2023/04/15 09:58:25;;;;;;;1999.90;999.90;;;16.10;97.20;;;;;;6724261;88;20186;-76
2023/04/15 10:08:31;;;;;;;1999.90;999.90;;;15.90;96.90;;;;;;6710078;88;20254;-76
2023/04/15 10:18:35;;;;;;;1999.90;999.90;;;16.90;95.20;;;;;;6708252;88;20214;-76
2023/04/15 10:28:36;;;;;;;1999.90;999.90;;;17.00;95.40;;;;;;6706944;88;20329;-77
2023/04/15 10:38:37;;;;;;;1999.90;999.90;;;17.10;96.00;;;;;;6698069;88;20693;-77
2023/04/15 10:48:38;;;;;;;1999.90;999.90;;;17.30;94.90;;;;;;6717204;88;20203;-76
2023/04/15 10:58:42;;;;;;;1999.90;999.90;;;17.30;95.80;;;;;;6711028;88;20198;-75
2023/04/15 11:09:01;;;;;;;1999.90;999.90;;;17.00;95.80;;;;;;6712554;88;20203;-78
2023/04/15 11:19:02;;;;;;;1999.90;999.90;;;17.20;95.70;;;;;;6710882;88;20207;-77
2023/04/15 11:29:04;;;;;;;1999.90;999.90;;;17.10;97.00;;;;;;6709222;88;20248;-76
2023/04/15 11:39:06;;;;;;;1999.90;999.90;;;16.80;96.90;;;;;;6710843;88;20203;-76
2023/04/15 11:49:06;;;;;;;1999.90;999.90;;;16.10;98.00;;;;;;6711103;88;20283;-77
2023/04/15 11:59:07;;;;;;;1999.90;999.90;;;15.60;98.90;;;;;;6706184;88;20247;-77
2023/04/15 12:09:15;;;;;;;1999.90;999.90;;;15.00;99.90;;;;;;6711803;88;20211;-77
2023/04/15 12:23:53;;;;;;;1999.90;999.90;;;15.60;99.40;;;;;;6777392;86;20226;-76
2023/04/15 12:33:57;;;;;;;1999.90;999.90;;;15.40;99.80;;;;;;6766358;87;20257;-76
2023/04/15 12:43:58;;;;;;;1999.90;999.90;;;14.50;99.90;;;;;;6767302;87;20197;-76
2023/04/15 12:53:59;;;;;;;1999.90;999.90;;;14.20;99.90;;;;;;6769172;87;20291;-76
2023/04/15 13:03:59;;;;;;;1999.90;999.90;;;13.70;99.90;;;;;;6768356;87;20199;-76
2023/04/15 13:14:04;;;;;;;1999.90;999.90;;;13.40;99.90;;;;;;6764512;87;20278;-76
2023/04/15 13:24:05;;;;;;;1999.90;999.90;;;13.20;99.90;;;;;;6751589;87;20164;-76
2023/04/15 13:34:06;;;;;;;1999.90;999.90;;;13.00;99.90;;;;;;6738923;87;20189;-76
2023/04/15 13:44:06;;;;;;;1999.90;999.90;;;13.00;99.90;;;;;;6742176;88;20208;-76
2023/04/15 13:54:07;;;;;;;1999.90;999.90;;;12.80;99.90;;;;;;6738051;88;20192;-76
2023/04/15 14:04:07;;;;;;;1999.90;999.90;;;12.70;99.90;;;;;;6736063;88;20193;-76
2023/04/15 14:14:08;;;;;;;1999.90;999.90;;;12.50;99.90;;;;;;6737745;87;20226;-76
2023/04/15 14:24:09;;;;;;;1999.90;999.90;;;12.40;99.90;;;;;;6756264;87;20192;-76
2023/04/15 14:34:10;;;;;;;1999.90;999.90;;;12.10;99.90;;;;;;6757069;87;20335;-74
2023/04/15 14:44:11;;;;;;;1999.90;999.90;;;12.10;99.90;;;;;;6758381;87;20700;-75
2023/04/15 14:54:11;;;;;;;1999.90;999.90;;;12.20;99.90;;;;;;6754784;87;20278;-75
2023/04/15 15:04:12;;;;;;;1999.90;999.90;;;12.00;99.90;;;;;;6759332;87;20333;-75
2023/04/15 15:14:13;;;;;;;1999.90;999.90;;;11.70;99.90;;;;;;6752905;87;20686;-75
2023/04/15 15:24:13;;;;;;;1999.90;999.90;;;11.50;99.90;;;;;;6737031;88;20263;-75
2023/04/15 15:34:15;;;;;;;1999.90;999.90;;;11.30;99.90;;;;;;6736535;88;20197;-75
2023/04/15 15:44:15;;;;;;;1999.90;999.90;;;11.10;99.90;;;;;;6745276;88;20315;-75
2023/04/15 15:54:16;;;;;;;1999.90;999.90;;;10.90;99.90;;;;;;6738921;88;20192;-75
2023/04/15 16:04:17;;;;;;;1999.90;999.90;;;10.80;99.90;;;;;;6735957;88;20490;-75
2023/04/15 16:14:17;;;;;;;1999.90;999.90;;;10.70;99.90;;;;;;6736061;87;20271;-75
2023/04/15 16:24:18;;;;;;;1999.90;999.90;;;10.50;99.90;;;;;;6753485;87;20188;-75
2023/04/15 16:34:19;;;;;;;1999.90;999.90;;;10.40;99.90;;;;;;6754050;87;20799;-75
2023/04/15 16:44:19;;;;;;;1999.90;999.90;;;10.30;99.90;;;;;;6757505;87;20231;-76
2023/04/15 16:54:20;;;;;;;1999.90;999.90;;;10.20;99.90;;;;;;6751389;87;20192;-75
2023/04/15 17:04:20;;;;;;;1999.90;999.90;;;10.10;99.90;;;;;;6753542;87;20214;-75
2023/04/15 17:14:21;;;;;;;1999.90;999.90;;;10.00;99.90;;;;;;6759114;87;20180;-75
2023/04/15 17:24:21;;;;;;;1999.90;999.90;;;9.90;99.90;;;;;;6757403;87;20169;-75
2023/04/15 17:34:22;;;;;;;1999.90;999.90;;;9.80;99.90;;;;;;6758431;87;20802;-75
2023/04/15 17:44:22;;;;;;;1999.90;999.90;;;9.60;99.90;;;;;;6754426;87;20197;-75
2023/04/15 17:54:23;;;;;;;1999.90;999.90;;;9.60;99.90;;;;;;6755656;87;21141;-75
2023/04/15 18:04:24;;;;;;;1999.90;999.90;;;9.60;99.90;;;;;;6758265;87;20200;-75
2023/04/15 18:14:25;;;;;;;1999.90;999.90;;;9.50;99.90;;;;;;6756371;87;20667;-75
2023/04/15 18:24:25;;;;;;;1999.90;999.90;;;9.50;99.90;;;;;;6754321;87;20707;-75
2023/04/15 18:34:25;;;;;;;1999.90;999.90;;;9.30;99.90;;;;;;6756102;87;20230;-74
2023/04/15 18:44:27;;;;;;;1999.90;999.90;;;9.30;99.90;;;;;;6754380;87;20207;-75
2023/04/15 18:54:27;;;;;;;1999.90;999.90;;;9.30;99.90;;;;;;6754597;87;20699;-74
2023/04/15 19:04:28;;;;;;;1999.90;999.90;;;9.20;99.90;;;;;;6756291;87;20281;-76
2023/04/15 19:14:28;;;;;;;1999.90;999.90;;;9.20;99.90;;;;;;6755356;87;20213;-75
2023/04/15 19:24:32;;;;;;;1999.90;999.90;;;9.10;99.90;;;;;;6737604;88;21103;-75
2023/04/15 19:34:32;;;;;;;1999.90;999.90;;;9.00;99.90;;;;;;6739942;88;20220;-75
2023/04/15 19:44:33;;;;;;;1999.90;999.90;;;8.70;99.90;;;;;;6740683;88;20721;-75
2023/04/15 19:54:33;;;;;;;1999.90;999.90;;;8.70;99.90;;;;;;6737824;88;20777;-75
2023/04/15 20:04:34;;;;;;;1999.90;999.90;;;8.70;99.90;;;;;;6739554;88;20260;-75
2023/04/15 20:14:35;;;;;;;1999.90;999.90;;;8.60;99.90;;;;;;6739292;87;20216;-75
2023/04/15 20:24:35;;;;;;;1999.90;999.90;;;8.60;99.90;;;;;;6755905;87;20184;-74
2023/04/15 20:34:39;;;;;;;1999.90;999.90;;;8.50;99.90;;;;;;6756779;87;20215;-76
2023/04/15 20:44:39;;;;;;;1999.90;999.90;;;8.30;99.90;;;;;;6754974;87;20195;-75
2023/04/15 20:54:40;;;;;;;1999.90;999.90;;;8.30;99.90;;;;;;6755463;87;20779;-77
2023/04/15 21:04:40;;;;;;;1999.90;999.90;;;8.20;99.90;;;;;;6758432;87;20302;-77
2023/04/15 21:14:41;;;;;;;1999.90;999.90;;;8.30;99.90;;;;;;6755895;87;20213;-77
2023/04/15 21:24:41;;;;;;;1999.90;999.90;;;8.20;99.90;;;;;;6738843;88;20202;-75
2023/04/15 21:34:42;;;;;;;1999.90;999.90;;;8.10;99.90;;;;;;6741196;88;20199;-80
2023/04/15 21:44:42;;;;;;;1999.90;999.90;;;8.00;99.90;;;;;;6738446;88;20256;-76
2023/04/15 21:54:43;;;;;;;1999.90;999.90;;;8.00;99.90;;;;;;6740451;88;20247;-76
2023/04/15 22:04:43;;;;;;;1999.90;999.90;;;8.00;99.90;;;;;;6739508;88;20670;-76
2023/04/15 22:14:45;;;;;;;1999.90;999.90;;;7.90;99.90;;;;;;6741464;87;20196;-76
2023/04/15 22:24:45;;;;;;;1999.90;999.90;;;8.00;99.90;;;;;;6756950;87;20303;-77
2023/04/15 22:34:46;;;;;;;1999.90;999.90;;;7.90;99.90;;;;;;6762365;87;20394;-77
2023/04/15 22:44:47;;;;;;;1999.90;999.90;;;7.90;99.90;;;;;;6759090;87;20317;-77
2023/04/15 22:54:47;;;;;;;1999.90;999.90;;;7.90;99.90;;;;;;6755992;87;20187;-77
2023/04/15 23:04:48;;;;;;;1999.90;999.90;;;7.90;99.90;;;;;;6755914;87;20199;-77
2023/04/15 23:14:48;;;;;;;1999.90;999.90;;;7.90;99.90;;;;;;6751767;87;20211;-77
2023/04/15 23:24:48;;;;;;;1999.90;999.90;;;7.90;99.90;;;;;;6740185;87;20180;-77
2023/04/15 23:34:51;;;;;;;1999.90;999.90;;;7.80;99.90;;;;;;6738605;87;20225;-75
2023/04/15 23:44:51;;;;;;;1999.90;999.90;;;7.80;99.90;;;;;;6739060;87;20249;-76
2023/04/15 23:54:52;;;;;;;1999.90;999.90;;;7.80;99.90;;;;;;6740746;87;20343;-76
